sensor_id;sensor_type;location;lat;lon;timestamp;P1;P2;P0
78316;PMS7003;67572;50.930;18.276;2023-05-29T00:00:49;3.00;1.00;1.00
78316;PMS7003;67572;50.930;18.276;2023-05-29T00:03:55;1.00;1.00;1.00
78316;PMS7003;67572;50.930;18.276;2023-05-29T00:06:59;6.75;1.00;1.00
78316;PMS7003;67572;50.930;18.276;2023-05-29T00:10:05;5.50;3.00;3.00
78316;PMS7003;67572;50.930;18.276;2023-05-29T00:13:11;3.00;3.00;3.00
78316;PMS7003;67572;50.930;18.276;2023-05-29T00:16:15;1.50;1.50;1.50
78316;PMS7003;67572;50.930;18.276;2023-05-29T00:19:19;3.00;3.00;3.00
78316;PMS7003;67572;50.930;18.276;2023-05-29T00:22:25;2.00;2.00;2.00
78316;PMS7003;67572;50.930;18.276;2023-05-29T00:25:30;3.00;3.00;3.00
78316;PMS7003;67572;50.930;18.276;2023-05-29T00:28:36;0.50;0.50;0.50
78316;PMS7003;67572;50.930;18.276;2023-05-29T00:31:39;2.50;2.50;2.50
78316;PMS7003;67572;50.930;18.276;2023-05-29T00:34:44;3.00;3.00;3.00
78316;PMS7003;67572;50.930;18.276;2023-05-29T00:37:48;0.25;0.25;0.25
78316;PMS7003;67572;50.930;18.276;2023-05-29T00:40:53;1.00;1.00;1.00
78316;PMS7003;67572;50.930;18.276;2023-05-29T00:43:56;3.00;3.00;3.00
78316;PMS7003;67572;50.930;18.276;2023-05-29T00:47:00;3.25;1.00;1.00
78316;PMS7003;67572;50.930;18.276;2023-05-29T00:50:04;5.50;3.25;3.25
78316;PMS7003;67572;50.930;18.276;2023-05-29T00:53:09;2.50;1.00;1.00
78316;PMS7003;67572;50.930;18.276;2023-05-29T00:56:15;3.00;3.00;1.00
78316;PMS7003;67572;50.930;18.276;2023-05-29T00:59:19;3.75;3.00;3.00
78316;PMS7003;67572;50.930;18.276;2023-05-29T01:02:24;3.75;3.00;3.00
78316;PMS7003;67572;50.930;18.276;2023-05-29T01:05:31;5.00;3.75;3.50
78316;PMS7003;67572;50.930;18.276;2023-05-29T01:08:37;3.00;3.00;3.00
78316;PMS7003;67572;50.930;18.276;2023-05-29T01:11:48;0.50;0.50;0.50
78316;PMS7003;67572;50.930;18.276;2023-05-29T01:15:01;2.00;2.00;2.00
78316;PMS7003;67572;50.930;18.276;2023-05-29T01:18:19;2.50;2.50;2.50
78316;PMS7003;67572;50.930;18.276;2023-05-29T01:21:35;1.00;1.00;1.00
78316;PMS7003;67572;50.930;18.276;2023-05-29T01:25:02;2.50;2.50;2.50
78316;PMS7003;67572;50.930;18.276;2023-05-29T01:28:17;6.75;3.00;2.50
78316;PMS7003;67572;50.930;18.276;2023-05-29T01:31:25;3.25;3.25;3.25
78316;PMS7003;67572;50.930;18.276;2023-05-29T01:34:32;6.50;4.00;4.00
78316;PMS7003;67572;50.930;18.276;2023-05-29T01:37:37;3.50;3.50;3.50
78316;PMS7003;67572;50.930;18.276;2023-05-29T01:40:40;4.00;4.00;4.00
78316;PMS7003;67572;50.930;18.276;2023-05-29T01:43:47;6.00;4.00;3.50
78316;PMS7003;67572;50.930;18.276;2023-05-29T01:46:52;5.00;5.00;4.50
78316;PMS7003;67572;50.930;18.276;2023-05-29T01:49:56;3.75;3.00;3.00
78316;PMS7003;67572;50.930;18.276;2023-05-29T01:53:02;5.00;5.00;5.00
78316;PMS7003;67572;50.930;18.276;2023-05-29T01:56:06;8.00;3.50;3.50
78316;PMS7003;67572;50.930;18.276;2023-05-29T01:59:14;9.00;6.00;6.00
78316;PMS7003;67572;50.930;18.276;2023-05-29T02:02:18;6.25;6.00;6.00
78316;PMS7003;67572;50.930;18.276;2023-05-29T02:05:25;7.00;6.00;4.50
78316;PMS7003;67572;50.930;18.276;2023-05-29T02:08:29;3.00;3.00;3.00
78316;PMS7003;67572;50.930;18.276;2023-05-29T02:11:34;3.25;3.00;3.00
78316;PMS7003;67572;50.930;18.276;2023-05-29T02:14:39;6.50;6.50;6.00
78316;PMS7003;67572;50.930;18.276;2023-05-29T02:17:44;5.00;5.00;4.50
78316;PMS7003;67572;50.930;18.276;2023-05-29T02:20:48;3.00;3.00;3.00
78316;PMS7003;67572;50.930;18.276;2023-05-29T02:23:55;3.00;3.00;2.50
78316;PMS7003;67572;50.930;18.276;2023-05-29T02:27:00;6.00;3.25;3.25
78316;PMS7003;67572;50.930;18.276;2023-05-29T02:30:11;3.75;3.75;3.75
78316;PMS7003;67572;50.930;18.276;2023-05-29T02:33:16;10.00;5.00;5.00
78316;PMS7003;67572;50.930;18.276;2023-05-29T02:36:20;4.25;3.00;3.00
78316;PMS7003;67572;50.930;18.276;2023-05-29T02:39:24;6.25;5.00;3.00
78316;PMS7003;67572;50.930;18.276;2023-05-29T02:42:28;5.50;5.50;5.50
78316;PMS7003;67572;50.930;18.276;2023-05-29T02:45:33;9.25;7.00;6.25
78316;PMS7003;67572;50.930;18.276;2023-05-29T02:48:37;6.00;3.75;3.25
78316;PMS7003;67572;50.930;18.276;2023-05-29T02:51:40;4.00;1.00;0.00
78316;PMS7003;67572;50.930;18.276;2023-05-29T02:54:44;6.50;6.25;6.00
78316;PMS7003;67572;50.930;18.276;2023-05-29T02:57:49;8.00;6.50;6.25
78316;PMS7003;67572;50.930;18.276;2023-05-29T03:00:56;6.50;6.50;4.50
78316;PMS7003;67572;50.930;18.276;2023-05-29T03:04:00;6.75;6.50;6.50
78316;PMS7003;67572;50.930;18.276;2023-05-29T03:07:04;6.00;4.00;4.00
78316;PMS7003;67572;50.930;18.276;2023-05-29T03:10:09;6.00;5.00;4.50
78316;PMS7003;67572;50.930;18.276;2023-05-29T03:13:13;8.50;6.50;6.50
78316;PMS7003;67572;50.930;18.276;2023-05-29T03:16:27;5.75;4.50;4.50
78316;PMS7003;67572;50.930;18.276;2023-05-29T03:19:32;3.00;3.00;3.00
78316;PMS7003;67572;50.930;18.276;2023-05-29T03:22:36;6.00;6.00;6.00
78316;PMS7003;67572;50.930;18.276;2023-05-29T03:25:40;6.75;6.75;6.00
78316;PMS7003;67572;50.930;18.276;2023-05-29T03:28:44;3.25;3.25;3.25
78316;PMS7003;67572;50.930;18.276;2023-05-29T03:31:49;3.25;3.25;3.25
78316;PMS7003;67572;50.930;18.276;2023-05-29T03:35:00;8.00;7.00;6.00
78316;PMS7003;67572;50.930;18.276;2023-05-29T03:38:05;7.00;6.00;6.00
78316;PMS7003;67572;50.930;18.276;2023-05-29T03:41:12;6.00;6.00;6.00
78316;PMS7003;67572;50.930;18.276;2023-05-29T03:44:16;8.50;6.75;6.25
78316;PMS7003;67572;50.930;18.276;2023-05-29T03:47:24;3.75;3.00;3.00
78316;PMS7003;67572;50.930;18.276;2023-05-29T03:50:29;5.00;2.50;2.50
78316;PMS7003;67572;50.930;18.276;2023-05-29T03:53:32;8.50;6.50;6.50
78316;PMS7003;67572;50.930;18.276;2023-05-29T03:56:43;3.00;1.00;1.00
78316;PMS7003;67572;50.930;18.276;2023-05-29T03:59:49;6.75;6.75;6.00
78316;PMS7003;67572;50.930;18.276;2023-05-29T04:02:55;10.50;7.00;6.50
78316;PMS7003;67572;50.930;18.276;2023-05-29T04:05:59;9.00;6.00;6.00
78316;PMS7003;67572;50.930;18.276;2023-05-29T04:09:04;6.50;6.50;6.00
78316;PMS7003;67572;50.930;18.276;2023-05-29T04:12:15;8.25;6.00;6.00
78316;PMS7003;67572;50.930;18.276;2023-05-29T04:15:19;9.00;7.00;7.00
78316;PMS7003;67572;50.930;18.276;2023-05-29T04:18:31;7.00;7.00;7.00
78316;PMS7003;67572;50.930;18.276;2023-05-29T04:21:46;9.25;8.50;8.50
78316;PMS7003;67572;50.930;18.276;2023-05-29T04:24:53;15.00;11.00;9.75
78316;PMS7003;67572;50.930;18.276;2023-05-29T04:28:04;9.25;7.50;7.50
78316;PMS7003;67572;50.930;18.276;2023-05-29T04:31:10;12.00;9.00;7.00
78316;PMS7003;67572;50.930;18.276;2023-05-29T04:34:20;9.75;8.00;8.00
78316;PMS7003;67572;50.930;18.276;2023-05-29T04:37:24;9.00;9.00;7.50
78316;PMS7003;67572;50.930;18.276;2023-05-29T04:40:43;12.25;9.75;9.25
78316;PMS7003;67572;50.930;18.276;2023-05-29T04:43:50;17.50;16.00;15.00
78316;PMS7003;67572;50.930;18.276;2023-05-29T04:47:02;9.75;9.00;8.00
78316;PMS7003;67572;50.930;18.276;2023-05-29T04:50:19;8.00;8.00;7.00
78316;PMS7003;67572;50.930;18.276;2023-05-29T04:53:48;12.25;11.00;9.75
78316;PMS7003;67572;50.930;18.276;2023-05-29T04:56:54;13.00;12.00;11.50
78316;PMS7003;67572;50.930;18.276;2023-05-29T05:00:03;11.75;11.75;10.50
78316;PMS7003;67572;50.930;18.276;2023-05-29T05:03:11;15.25;13.00;10.00
78316;PMS7003;67572;50.930;18.276;2023-05-29T05:06:20;12.50;10.00;10.00
78316;PMS7003;67572;50.930;18.276;2023-05-29T05:09:23;10.50;10.50;10.00
78316;PMS7003;67572;50.930;18.276;2023-05-29T05:12:28;10.50;10.50;10.50
78316;PMS7003;67572;50.930;18.276;2023-05-29T05:15:33;12.00;12.00;11.50
78316;PMS7003;67572;50.930;18.276;2023-05-29T05:18:38;18.00;12.50;10.00
78316;PMS7003;67572;50.930;18.276;2023-05-29T05:21:50;13.25;12.00;11.50
78316;PMS7003;67572;50.930;18.276;2023-05-29T05:24:56;13.25;12.00;11.00
78316;PMS7003;67572;50.930;18.276;2023-05-29T05:28:01;11.00;10.00;10.00
78316;PMS7003;67572;50.930;18.276;2023-05-29T05:31:07;14.50;12.00;11.00
78316;PMS7003;67572;50.930;18.276;2023-05-29T05:34:21;15.00;13.00;13.00
78316;PMS7003;67572;50.930;18.276;2023-05-29T05:37:26;13.00;12.00;11.50
78316;PMS7003;67572;50.930;18.276;2023-05-29T05:40:39;10.50;10.50;10.00
78316;PMS7003;67572;50.930;18.276;2023-05-29T05:43:51;10.00;10.00;10.00
78316;PMS7003;67572;50.930;18.276;2023-05-29T05:47:11;8.33;8.33;7.67
78316;PMS7003;67572;50.930;18.276;2023-05-29T05:50:18;12.00;9.00;7.00
78316;PMS7003;67572;50.930;18.276;2023-05-29T05:53:26;9.00;7.00;7.00
78316;PMS7003;67572;50.930;18.276;2023-05-29T05:56:35;4.00;4.00;4.00
78316;PMS7003;67572;50.930;18.276;2023-05-29T05:59:49;6.00;4.00;4.00
78316;PMS7003;67572;50.930;18.276;2023-05-29T06:02:53;8.33;7.00;6.67
78316;PMS7003;67572;50.930;18.276;2023-05-29T06:06:18;5.67;5.67;5.00
78316;PMS7003;67572;50.930;18.276;2023-05-29T06:09:24;3.00;3.00;3.00
78316;PMS7003;67572;50.930;18.276;2023-05-29T06:12:30;5.33;3.67;3.67
78316;PMS7003;67572;50.930;18.276;2023-05-29T06:15:43;4.00;4.00;4.00
78316;PMS7003;67572;50.930;18.276;2023-05-29T06:18:49;4.00;4.00;4.00
78316;PMS7003;67572;50.930;18.276;2023-05-29T06:21:54;2.00;2.00;2.00
78316;PMS7003;67572;50.930;18.276;2023-05-29T06:24:59;8.00;7.00;5.67
78316;PMS7003;67572;50.930;18.276;2023-05-29T06:28:07;5.00;1.67;1.67
78316;PMS7003;67572;50.930;18.276;2023-05-29T06:31:11;5.00;4.00;4.00
78316;PMS7003;67572;50.930;18.276;2023-05-29T06:34:14;2.00;2.00;2.00
78316;PMS7003;67572;50.930;18.276;2023-05-29T06:37:18;4.00;4.00;4.00
78316;PMS7003;67572;50.930;18.276;2023-05-29T06:40:24;6.33;6.33;5.67
78316;PMS7003;67572;50.930;18.276;2023-05-29T06:43:27;7.67;7.00;6.33
78316;PMS7003;67572;50.930;18.276;2023-05-29T06:46:34;8.33;7.00;7.00
78316;PMS7003;67572;50.930;18.276;2023-05-29T06:49:40;5.00;4.00;4.00
78316;PMS7003;67572;50.930;18.276;2023-05-29T06:52:48;12.00;9.00;8.33
78316;PMS7003;67572;50.930;18.276;2023-05-29T06:56:10;9.67;7.33;7.00
78316;PMS7003;67572;50.930;18.276;2023-05-29T06:59:28;8.67;8.00;8.00
78316;PMS7003;67572;50.930;18.276;2023-05-29T07:02:31;12.67;8.33;7.00
78316;PMS7003;67572;50.930;18.276;2023-05-29T07:05:46;7.67;5.33;5.00
78316;PMS7003;67572;50.930;18.276;2023-05-29T07:08:52;8.00;7.00;7.00
78316;PMS7003;67572;50.930;18.276;2023-05-29T07:11:59;4.00;4.00;4.00
78316;PMS7003;67572;50.930;18.276;2023-05-29T07:15:04;2.67;2.67;2.67
78316;PMS7003;67572;50.930;18.276;2023-05-29T07:18:15;5.67;5.67;4.67
78316;PMS7003;67572;50.930;18.276;2023-05-29T07:21:19;4.00;4.00;4.00
78316;PMS7003;67572;50.930;18.276;2023-05-29T07:24:23;4.00;4.00;4.00
78316;PMS7003;67572;50.930;18.276;2023-05-29T07:27:28;2.00;2.00;2.00
78316;PMS7003;67572;50.930;18.276;2023-05-29T07:30:41;5.00;2.67;2.67
78316;PMS7003;67572;50.930;18.276;2023-05-29T07:33:51;1.00;1.00;1.00
78316;PMS7003;67572;50.930;18.276;2023-05-29T07:37:18;8.00;4.00;4.00
78316;PMS7003;67572;50.930;18.276;2023-05-29T07:40:27;3.33;2.00;2.00
78316;PMS7003;67572;50.930;18.276;2023-05-29T07:43:48;1.00;1.00;0.67
78316;PMS7003;67572;50.930;18.276;2023-05-29T07:46:58;0.33;0.33;0.33
78316;PMS7003;67572;50.930;18.276;2023-05-29T07:50:09;4.33;2.67;2.00
78316;PMS7003;67572;50.930;18.276;2023-05-29T07:53:13;1.00;1.00;1.00
78316;PMS7003;67572;50.930;18.276;2023-05-29T07:56:18;4.00;2.00;2.00
78316;PMS7003;67572;50.930;18.276;2023-05-29T07:59:24;2.00;2.00;2.00
78316;PMS7003;67572;50.930;18.276;2023-05-29T08:02:30;1.67;1.00;1.00
78316;PMS7003;67572;50.930;18.276;2023-05-29T08:06:05;2.00;2.00;2.00
78316;PMS7003;67572;50.930;18.276;2023-05-29T08:09:11;1.00;1.00;1.00
78316;PMS7003;67572;50.930;18.276;2023-05-29T08:12:21;2.67;1.33;1.33
78316;PMS7003;67572;50.930;18.276;2023-05-29T08:15:29;3.00;3.00;3.00
78316;PMS7003;67572;50.930;18.276;2023-05-29T08:18:34;1.67;1.67;1.67
78316;PMS7003;67572;50.930;18.276;2023-05-29T08:21:52;2.33;1.67;1.67
78316;PMS7003;67572;50.930;18.276;2023-05-29T08:24:55;1.00;1.00;1.00
78316;PMS7003;67572;50.930;18.276;2023-05-29T08:28:05;4.33;2.00;2.00
78316;PMS7003;67572;50.930;18.276;2023-05-29T08:31:14;3.67;2.33;2.33
78316;PMS7003;67572;50.930;18.276;2023-05-29T08:34:25;1.00;1.00;1.00
78316;PMS7003;67572;50.930;18.276;2023-05-29T08:37:29;3.00;2.00;2.00
78316;PMS7003;67572;50.930;18.276;2023-05-29T08:40:37;2.25;1.50;1.50
78316;PMS7003;67572;50.930;18.276;2023-05-29T08:43:41;0.00;0.00;0.00
78316;PMS7003;67572;50.930;18.276;2023-05-29T08:46:47;2.00;2.00;2.00
78316;PMS7003;67572;50.930;18.276;2023-05-29T08:50:11;1.00;1.00;1.00
78316;PMS7003;67572;50.930;18.276;2023-05-29T08:53:17;1.75;1.25;1.25
78316;PMS7003;67572;50.930;18.276;2023-05-29T08:56:31;1.50;1.50;1.50
78316;PMS7003;67572;50.930;18.276;2023-05-29T08:59:36;1.00;1.00;1.00
78316;PMS7003;67572;50.930;18.276;2023-05-29T09:02:43;2.00;2.00;2.00
78316;PMS7003;67572;50.930;18.276;2023-05-29T09:05:48;1.75;0.50;0.50
78316;PMS7003;67572;50.930;18.276;2023-05-29T09:08:52;2.00;1.00;1.00
78316;PMS7003;67572;50.930;18.276;2023-05-29T09:11:56;1.50;1.50;1.50
78316;PMS7003;67572;50.930;18.276;2023-05-29T09:15:00;1.50;1.50;1.50
78316;PMS7003;67572;50.930;18.276;2023-05-29T09:18:16;1.00;0.00;0.00
78316;PMS7003;67572;50.930;18.276;2023-05-29T09:21:26;2.00;1.00;1.00
78316;PMS7003;67572;50.930;18.276;2023-05-29T09:24:31;2.75;2.00;2.00
78316;PMS7003;67572;50.930;18.276;2023-05-29T09:27:38;2.00;2.00;2.00
78316;PMS7003;67572;50.930;18.276;2023-05-29T09:30:43;3.00;1.00;1.00
78316;PMS7003;67572;50.930;18.276;2023-05-29T09:33:52;1.25;1.25;1.25
78316;PMS7003;67572;50.930;18.276;2023-05-29T09:37:01;2.00;2.00;2.00
78316;PMS7003;67572;50.930;18.276;2023-05-29T09:40:10;2.00;2.00;2.00
78316;PMS7003;67572;50.930;18.276;2023-05-29T09:43:17;2.00;2.00;2.00
78316;PMS7003;67572;50.930;18.276;2023-05-29T09:46:22;1.75;1.75;1.75
78316;PMS7003;67572;50.930;18.276;2023-05-29T09:49:27;2.00;2.00;2.00
78316;PMS7003;67572;50.930;18.276;2023-05-29T09:52:34;4.00;2.50;2.00
78316;PMS7003;67572;50.930;18.276;2023-05-29T09:55:43;2.25;2.25;2.25
78316;PMS7003;67572;50.930;18.276;2023-05-29T09:58:48;1.75;1.75;1.75
78316;PMS7003;67572;50.930;18.276;2023-05-29T10:01:56;2.00;2.00;2.00
78316;PMS7003;67572;50.930;18.276;2023-05-29T10:05:07;2.25;2.25;2.00
78316;PMS7003;67572;50.930;18.276;2023-05-29T10:08:12;2.00;2.00;2.00
78316;PMS7003;67572;50.930;18.276;2023-05-29T10:11:20;1.60;1.60;1.60
78316;PMS7003;67572;50.930;18.276;2023-05-29T10:14:40;2.00;0.75;0.75
78316;PMS7003;67572;50.930;18.276;2023-05-29T10:18:05;4.50;2.50;2.50
78316;PMS7003;67572;50.930;18.276;2023-05-29T10:21:15;2.00;2.00;2.00
78316;PMS7003;67572;50.930;18.276;2023-05-29T10:24:25;2.00;1.25;1.25
78316;PMS7003;67572;50.930;18.276;2023-05-29T10:27:29;2.60;2.60;2.60
78316;PMS7003;67572;50.930;18.276;2023-05-29T10:30:38;3.00;2.00;2.00
78316;PMS7003;67572;50.930;18.276;2023-05-29T10:33:50;2.00;2.00;2.00
78316;PMS7003;67572;50.930;18.276;2023-05-29T10:37:04;2.50;1.50;1.50
78316;PMS7003;67572;50.930;18.276;2023-05-29T10:40:11;4.25;2.00;2.00
78316;PMS7003;67572;50.930;18.276;2023-05-29T10:43:31;3.00;1.50;1.50
78316;PMS7003;67572;50.930;18.276;2023-05-29T10:50:07;1.40;1.40;1.40
78316;PMS7003;67572;50.930;18.276;2023-05-29T10:53:15;1.20;1.20;1.00
78316;PMS7003;67572;50.930;18.276;2023-05-29T10:56:28;2.20;2.20;2.20
78316;PMS7003;67572;50.930;18.276;2023-05-29T10:59:39;2.50;2.00;2.00
78316;PMS7003;67572;50.930;18.276;2023-05-29T11:02:49;2.80;2.60;2.40
78316;PMS7003;67572;50.930;18.276;2023-05-29T11:05:55;2.00;2.00;1.80
78316;PMS7003;67572;50.930;18.276;2023-05-29T11:09:04;1.00;1.00;1.00
78316;PMS7003;67572;50.930;18.276;2023-05-29T11:12:29;2.20;1.60;1.60
78316;PMS7003;67572;50.930;18.276;2023-05-29T11:15:38;3.00;3.00;3.00
78316;PMS7003;67572;50.930;18.276;2023-05-29T11:18:43;3.20;2.00;2.00
78316;PMS7003;67572;50.930;18.276;2023-05-29T11:21:52;3.00;3.00;3.00
78316;PMS7003;67572;50.930;18.276;2023-05-29T11:25:10;4.00;2.00;2.00
78316;PMS7003;67572;50.930;18.276;2023-05-29T11:28:21;0.00;0.00;0.00
78316;PMS7003;67572;50.930;18.276;2023-05-29T11:31:39;2.60;2.00;2.00
78316;PMS7003;67572;50.930;18.276;2023-05-29T11:34:45;6.20;2.80;2.20
78316;PMS7003;67572;50.930;18.276;2023-05-29T11:37:59;7.20;3.40;3.40
78316;PMS7003;67572;50.930;18.276;2023-05-29T11:41:13;2.60;1.80;1.80
78316;PMS7003;67572;50.930;18.276;2023-05-29T11:44:26;2.00;2.00;1.40
78316;PMS7003;67572;50.930;18.276;2023-05-29T11:47:30;2.00;1.00;1.00
78316;PMS7003;67572;50.930;18.276;2023-05-29T11:50:40;1.00;1.00;1.00
78316;PMS7003;67572;50.930;18.276;2023-05-29T11:53:52;2.00;2.00;2.00
78316;PMS7003;67572;50.930;18.276;2023-05-29T11:57:09;3.80;2.00;2.00
78316;PMS7003;67572;50.930;18.276;2023-05-29T12:00:13;2.00;2.00;1.80
78316;PMS7003;67572;50.930;18.276;2023-05-29T12:03:43;1.00;1.00;1.00
78316;PMS7003;67572;50.930;18.276;2023-05-29T12:06:47;3.00;3.00;2.60
78316;PMS7003;67572;50.930;18.276;2023-05-29T12:09:51;1.40;1.40;1.40
78316;PMS7003;67572;50.930;18.276;2023-05-29T12:13:04;3.00;2.20;2.00
78316;PMS7003;67572;50.930;18.276;2023-05-29T12:16:19;1.20;1.20;1.20
78316;PMS7003;67572;50.930;18.276;2023-05-29T12:19:23;3.00;3.00;2.00
78316;PMS7003;67572;50.930;18.276;2023-05-29T12:22:42;2.80;1.80;1.80
78316;PMS7003;67572;50.930;18.276;2023-05-29T12:25:46;1.80;1.80;1.80
78316;PMS7003;67572;50.930;18.276;2023-05-29T12:29:01;1.80;1.80;1.80
78316;PMS7003;67572;50.930;18.276;2023-05-29T12:32:14;1.00;1.00;1.00
78316;PMS7003;67572;50.930;18.276;2023-05-29T12:35:19;1.80;1.20;1.20
78316;PMS7003;67572;50.930;18.276;2023-05-29T12:38:23;1.40;1.40;1.40
78316;PMS7003;67572;50.930;18.276;2023-05-29T12:41:33;2.00;2.00;2.00
78316;PMS7003;67572;50.930;18.276;2023-05-29T12:44:53;2.40;2.40;2.40
78316;PMS7003;67572;50.930;18.276;2023-05-29T12:48:00;2.00;2.00;2.00
78316;PMS7003;67572;50.930;18.276;2023-05-29T12:51:05;1.60;1.60;1.60
78316;PMS7003;67572;50.930;18.276;2023-05-29T12:54:11;5.00;2.40;2.00
78316;PMS7003;67572;50.930;18.276;2023-05-29T12:57:16;2.00;2.00;2.00
78316;PMS7003;67572;50.930;18.276;2023-05-29T13:00:32;3.20;3.20;3.00
78316;PMS7003;67572;50.930;18.276;2023-05-29T13:03:55;2.00;2.00;2.00
78316;PMS7003;67572;50.930;18.276;2023-05-29T13:07:08;2.00;2.00;2.00
78316;PMS7003;67572;50.930;18.276;2023-05-29T13:10:29;1.80;1.80;1.40
78316;PMS7003;67572;50.930;18.276;2023-05-29T13:13:33;2.00;2.00;2.00
78316;PMS7003;67572;50.930;18.276;2023-05-29T13:16:38;3.60;3.40;3.40
78316;PMS7003;67572;50.930;18.276;2023-05-29T13:19:42;2.80;2.00;2.00
78316;PMS7003;67572;50.930;18.276;2023-05-29T13:22:48;4.40;3.00;3.00
78316;PMS7003;67572;50.930;18.276;2023-05-29T13:25:52;4.00;3.20;3.20
78316;PMS7003;67572;50.930;18.276;2023-05-29T13:28:56;3.00;3.00;3.00
78316;PMS7003;67572;50.930;18.276;2023-05-29T13:32:02;4.00;4.00;3.80
78316;PMS7003;67572;50.930;18.276;2023-05-29T13:35:09;4.80;3.00;3.00
78316;PMS7003;67572;50.930;18.276;2023-05-29T13:38:24;3.60;3.60;3.20
78316;PMS7003;67572;50.930;18.276;2023-05-29T13:41:48;3.00;3.00;3.00
78316;PMS7003;67572;50.930;18.276;2023-05-29T13:45:06;2.40;2.40;2.40
78316;PMS7003;67572;50.930;18.276;2023-05-29T13:48:13;3.80;2.80;2.80
78316;PMS7003;67572;50.930;18.276;2023-05-29T13:51:17;3.40;3.40;3.40
78316;PMS7003;67572;50.930;18.276;2023-05-29T13:54:21;3.20;3.20;3.20
78316;PMS7003;67572;50.930;18.276;2023-05-29T13:57:31;2.00;2.00;2.00
78316;PMS7003;67572;50.930;18.276;2023-05-29T14:00:35;2.20;2.20;2.20
78316;PMS7003;67572;50.930;18.276;2023-05-29T14:03:56;3.00;3.00;3.00
78316;PMS7003;67572;50.930;18.276;2023-05-29T14:06:59;3.40;3.00;3.00
78316;PMS7003;67572;50.930;18.276;2023-05-29T14:10:06;4.00;4.00;4.00
78316;PMS7003;67572;50.930;18.276;2023-05-29T14:13:12;2.60;2.60;2.60
78316;PMS7003;67572;50.930;18.276;2023-05-29T14:16:16;3.00;3.00;3.00
78316;PMS7003;67572;50.930;18.276;2023-05-29T14:19:22;3.40;3.40;3.00
78316;PMS7003;67572;50.930;18.276;2023-05-29T14:22:27;3.00;3.00;3.00
78316;PMS7003;67572;50.930;18.276;2023-05-29T14:25:52;3.60;2.60;2.60
78316;PMS7003;67572;50.930;18.276;2023-05-29T14:29:02;3.00;3.00;2.80
78316;PMS7003;67572;50.930;18.276;2023-05-29T14:32:18;5.40;5.40;5.20
78316;PMS7003;67572;50.930;18.276;2023-05-29T14:35:49;2.80;2.80;2.80
78316;PMS7003;67572;50.930;18.276;2023-05-29T14:39:06;3.00;3.00;3.00
78316;PMS7003;67572;50.930;18.276;2023-05-29T14:42:15;2.80;2.80;2.40
78316;PMS7003;67572;50.930;18.276;2023-05-29T14:45:19;4.00;4.00;4.00
78316;PMS7003;67572;50.930;18.276;2023-05-29T14:48:43;2.80;2.80;2.60
78316;PMS7003;67572;50.930;18.276;2023-05-29T14:51:50;3.00;3.00;3.00
78316;PMS7003;67572;50.930;18.276;2023-05-29T14:54:54;3.00;3.00;3.00
78316;PMS7003;67572;50.930;18.276;2023-05-29T14:58:09;4.80;3.40;3.20
78316;PMS7003;67572;50.930;18.276;2023-05-29T15:01:28;2.00;2.00;2.00
78316;PMS7003;67572;50.930;18.276;2023-05-29T15:04:42;3.00;3.00;3.00
78316;PMS7003;67572;50.930;18.276;2023-05-29T15:07:47;2.80;2.40;2.40
78316;PMS7003;67572;50.930;18.276;2023-05-29T15:10:51;5.00;3.60;3.20
78316;PMS7003;67572;50.930;18.276;2023-05-29T15:14:08;3.20;3.20;3.20
78316;PMS7003;67572;50.930;18.276;2023-05-29T15:17:28;3.40;3.20;3.20
78316;PMS7003;67572;50.930;18.276;2023-05-29T15:20:33;1.20;1.20;1.20
78316;PMS7003;67572;50.930;18.276;2023-05-29T15:23:38;3.00;2.80;2.20
78316;PMS7003;67572;50.930;18.276;2023-05-29T15:26:46;3.60;2.20;2.20
78316;PMS7003;67572;50.930;18.276;2023-05-29T15:30:18;6.00;2.80;2.80
78316;PMS7003;67572;50.930;18.276;2023-05-29T15:33:25;2.00;2.00;2.00
78316;PMS7003;67572;50.930;18.276;2023-05-29T15:36:32;3.20;2.20;2.20
78316;PMS7003;67572;50.930;18.276;2023-05-29T15:40:04;4.40;2.60;2.60
78316;PMS7003;67572;50.930;18.276;2023-05-29T15:43:08;3.00;3.00;3.00
78316;PMS7003;67572;50.930;18.276;2023-05-29T15:46:11;3.80;2.60;2.00
78316;PMS7003;67572;50.930;18.276;2023-05-29T15:49:15;3.60;3.00;2.40
78316;PMS7003;67572;50.930;18.276;2023-05-29T15:52:35;3.00;2.20;2.00
78316;PMS7003;67572;50.930;18.276;2023-05-29T15:55:54;4.40;3.00;3.00
78316;PMS7003;67572;50.930;18.276;2023-05-29T15:59:12;4.20;2.60;2.60
78316;PMS7003;67572;50.930;18.276;2023-05-29T16:02:36;2.60;2.60;2.00
78316;PMS7003;67572;50.930;18.276;2023-05-29T16:05:46;2.00;2.00;2.00
78316;PMS7003;67572;50.930;18.276;2023-05-29T16:08:50;1.80;1.00;1.00
78316;PMS7003;67572;50.930;18.276;2023-05-29T16:11:55;4.00;4.00;4.00
78316;PMS7003;67572;50.930;18.276;2023-05-29T16:15:00;6.20;3.60;3.20
78316;PMS7003;67572;50.930;18.276;2023-05-29T16:18:06;2.60;2.60;2.60
78316;PMS7003;67572;50.930;18.276;2023-05-29T16:21:10;2.00;2.00;2.00
78316;PMS7003;67572;50.930;18.276;2023-05-29T16:24:22;3.20;3.00;3.00
78316;PMS7003;67572;50.930;18.276;2023-05-29T16:27:44;7.00;4.80;4.00
78316;PMS7003;67572;50.930;18.276;2023-05-29T16:30:48;5.40;4.20;3.80
78316;PMS7003;67572;50.930;18.276;2023-05-29T16:33:52;3.80;3.00;3.00
78316;PMS7003;67572;50.930;18.276;2023-05-29T16:37:04;4.40;4.40;3.80
78316;PMS7003;67572;50.930;18.276;2023-05-29T16:40:10;5.00;3.50;3.25
78316;PMS7003;67572;50.930;18.276;2023-05-29T16:43:43;2.80;2.80;2.80
78316;PMS7003;67572;50.930;18.276;2023-05-29T16:46:47;3.20;3.20;3.00
78316;PMS7003;67572;50.930;18.276;2023-05-29T16:50:20;4.40;3.20;3.20
78316;PMS7003;67572;50.930;18.276;2023-05-29T16:53:47;3.75;3.75;3.75
78316;PMS7003;67572;50.930;18.276;2023-05-29T16:56:58;2.60;2.00;2.00
78316;PMS7003;67572;50.930;18.276;2023-05-29T17:00:05;3.80;3.00;3.00
78316;PMS7003;67572;50.930;18.276;2023-05-29T17:03:10;6.00;6.00;6.00
78316;PMS7003;67572;50.930;18.276;2023-05-29T17:06:36;4.50;3.25;3.25
78316;PMS7003;67572;50.930;18.276;2023-05-29T17:09:53;3.50;3.50;3.50
78316;PMS7003;67572;50.930;18.276;2023-05-29T17:13:00;3.00;3.00;3.00
78316;PMS7003;67572;50.930;18.276;2023-05-29T17:16:05;3.00;3.00;3.00
78316;PMS7003;67572;50.930;18.276;2023-05-29T17:19:09;5.75;4.25;4.25
78316;PMS7003;67572;50.930;18.276;2023-05-29T17:22:24;5.25;5.00;5.00
78316;PMS7003;67572;50.930;18.276;2023-05-29T17:25:42;4.50;3.25;3.00
78316;PMS7003;67572;50.930;18.276;2023-05-29T17:29:12;2.00;2.00;2.00
78316;PMS7003;67572;50.930;18.276;2023-05-29T17:32:43;3.00;3.00;2.50
78316;PMS7003;67572;50.930;18.276;2023-05-29T17:35:47;3.00;3.00;2.50
78316;PMS7003;67572;50.930;18.276;2023-05-29T17:38:51;5.00;5.00;4.50
78316;PMS7003;67572;50.930;18.276;2023-05-29T17:42:27;6.00;3.50;3.00
78316;PMS7003;67572;50.930;18.276;2023-05-29T17:45:56;6.25;5.00;5.00
78316;PMS7003;67572;50.930;18.276;2023-05-29T17:49:01;6.00;5.00;5.00
78316;PMS7003;67572;50.930;18.276;2023-05-29T17:52:32;5.00;5.00;5.00
78316;PMS7003;67572;50.930;18.276;2023-05-29T17:55:36;3.00;3.00;3.00
78316;PMS7003;67572;50.930;18.276;2023-05-29T17:58:40;8.33;7.00;7.00
78316;PMS7003;67572;50.930;18.276;2023-05-29T18:02:07;10.00;7.00;6.75
78316;PMS7003;67572;50.930;18.276;2023-05-29T18:05:37;9.33;8.33;7.00
78316;PMS7003;67572;50.930;18.276;2023-05-29T18:09:05;10.67;10.00;10.00
78316;PMS7003;67572;50.930;18.276;2023-05-29T18:12:10;7.00;7.00;7.00
78316;PMS7003;67572;50.930;18.276;2023-05-29T18:15:27;3.25;2.25;2.25